Time;durP1;ratioP1;P1;durP2;ratioP2;P2;SDS_P1;SDS_P2;PMS_P1;PMS_P2;Temp;Humidity;BMP_temperature;BMP_pressure;BME280_temperature;BME280_humidity;BME280_pressure;Samples;Min_cycle;Max_cycle;Signal;HPM_P1;HPM_P2
2022/10/08 00:02:16;;;;;;;;;;;;;;;21.97;41.20;99752.22;4483914;32;33835;-95
2022/10/08 00:04:45;;;;;;;;;;;;;;;21.86;41.12;99741.91;4484134;32;33197;-94
2022/10/08 00:07:12;;;;;;;;;;;;;;;21.89;41.01;99748.87;4483431;32;35142;-90
2022/10/08 00:09:39;;;;;;;;;;;;;;;21.85;41.11;99750.72;4486873;32;34301;-93
2022/10/08 00:12:06;;;;;;;;;;;;;;;21.74;41.33;99747.47;4486108;32;33723;-94
2022/10/08 00:14:34;;;;;;;;;;;;;;;21.84;41.05;99750.78;4469302;32;33940;-90
2022/10/08 00:17:01;;;;;;;;;;;;;;;21.84;41.06;99740.22;4483444;32;34414;-85
2022/10/08 00:19:28;;;;;;;;;;;;;;;21.79;41.03;99745.59;4483295;32;34351;-85
2022/10/08 00:21:56;;;;;;;;;;;;;;;21.79;40.92;99737.69;4484013;32;35149;-85
2022/10/08 00:24:23;;;;;;;;;;;;;;;21.81;40.88;99733.22;4469707;32;32665;-85
2022/10/08 00:26:51;;;;;;;;;;;;;;;21.83;40.73;99742.00;4482210;32;33641;-85
2022/10/08 00:29:20;;;;;;;;;;;;;;;21.79;40.79;99731.53;4482713;32;35337;-85
2022/10/08 00:31:47;;;;;;;;;;;;;;;21.73;41.00;99726.41;4483494;32;34556;-85
2022/10/08 00:34:17;;;;;;;;;;;;;;;21.63;41.14;99728.41;4483555;32;33172;-85
2022/10/08 00:36:44;;;;;;;;;;;;;;;21.61;41.37;99720.50;4469501;32;34247;-85
2022/10/08 00:39:15;;;;;;;;;;;;;;;21.60;41.30;99721.41;4483540;32;35292;-84
2022/10/08 00:41:44;;;;;;;;;;;;;;;21.61;41.31;99719.66;4483281;32;35125;-85
2022/10/08 00:44:30;;;;;;;;;;;;;;;21.66;41.02;99715.12;4469632;32;34211;-85
2022/10/08 00:46:57;;;;;;;;;;;;;;;21.68;40.79;99705.41;4483672;32;33890;-85
2022/10/08 00:49:25;;;;;;;;;;;;;;;21.58;40.94;99704.75;4469371;32;34025;-93
2022/10/08 00:51:53;;;;;;;;;;;;;;;21.56;40.83;99705.69;4483034;32;33695;-86
2022/10/08 00:54:21;;;;;;;;;;;;;;;21.60;40.69;99696.81;4483578;32;33310;-85
2022/10/08 00:56:50;;;;;;;;;;;;;;;21.51;40.79;99702.28;4469158;32;32843;-87
2022/10/08 00:59:17;;;;;;;;;;;;;;;21.44;41.01;99701.59;4483455;32;35234;-84
2022/10/08 01:01:44;;;;;;;;;;;;;;;21.39;41.08;99703.44;4483604;32;34254;-85
2022/10/08 01:04:12;;;;;;;;;;;;;;;21.47;40.74;99697.97;4483424;32;34044;-84
2022/10/08 01:06:42;;;;;;;;;;;;;;;21.41;40.79;99706.06;4483579;32;34078;-84
2022/10/08 01:09:13;;;;;;;;;;;;;;;21.45;40.76;99699.81;4483238;32;34198;-85
2022/10/08 01:11:50;;;;;;;;;;;;;;;21.46;40.67;99696.25;4469246;32;34105;-85
2022/10/08 01:14:33;;;;;;;;;;;;;;;21.35;40.69;99694.72;4469109;32;33787;-85
2022/10/08 01:17:03;;;;;;;;;;;;;;;21.27;41.02;99682.59;4483648;32;35064;-90
2022/10/08 01:19:49;;;;;;;;;;;;;;;21.21;41.22;99691.50;4483248;32;33947;-85
2022/10/08 01:22:28;;;;;;;;;;;;;;;21.20;41.28;99681.00;4483288;32;34114;-85
2022/10/08 01:27:44;;;;;;;;;;;;;;;20.99;41.86;99684.97;4471046;32;34101;-86
2022/10/08 01:30:13;;;;;;;;;;;;;;;21.08;41.59;99682.13;4469177;32;34021;-83
2022/10/08 01:32:42;;;;;;;;;;;;;;;21.25;41.35;99680.00;4468725;32;34545;-87
2022/10/08 01:35:10;;;;;;;;;;;;;;;21.20;41.42;99673.94;4468972;32;33454;-85
2022/10/08 01:37:40;;;;;;;;;;;;;;;21.16;41.50;99669.62;4468982;32;34962;-85
2022/10/08 01:40:09;;;;;;;;;;;;;;;21.06;41.74;99661.09;4482185;32;33016;-85
2022/10/08 01:42:36;;;;;;;;;;;;;;;21.05;41.82;99659.31;4466871;32;34966;-84
2022/10/08 01:45:05;;;;;;;;;;;;;;;21.04;41.79;99662.00;4469041;32;34166;-85
2022/10/08 01:47:32;;;;;;;;;;;;;;;21.08;41.60;99661.03;4468772;32;33967;-85
2022/10/08 01:50:04;;;;;;;;;;;;;;;21.05;41.56;99659.31;4468938;32;34076;-85
2022/10/08 01:52:33;;;;;;;;;;;;;;;21.10;41.61;99654.84;4469389;32;33803;-85
2022/10/08 01:55:01;;;;;;;;;;;;;;;21.07;41.39;99654.03;4468132;32;33495;-84
2022/10/08 01:57:28;;;;;;;;;;;;;;;21.01;41.39;99643.63;4469258;32;34844;-86
2022/10/08 01:59:57;;;;;;;;;;;;;;;21.03;41.49;99650.59;4468977;32;34568;-84
2022/10/08 02:02:24;;;;;;;;;;;;;;;20.99;41.55;99653.34;4482350;32;34463;-84
2022/10/08 02:04:53;;;;;;;;;;;;;;;20.74;42.19;99650.34;4468481;32;33275;-84
2022/10/08 02:07:30;;;;;;;;;;;;;;;20.85;42.17;99653.62;4483231;32;33900;-85
2022/10/08 02:10:14;;;;;;;;;;;;;;;20.83;42.24;99648.38;4482001;32;35139;-84
2022/10/08 02:12:41;;;;;;;;;;;;;;;20.85;41.98;99649.22;4482862;32;34120;-92
2022/10/08 02:15:17;;;;;;;;;;;;;;;20.87;41.82;99644.81;4468415;32;33339;-93
2022/10/08 02:18:05;;;;;;;;;;;;;;;20.85;41.97;99637.81;4468364;32;33811;-85
2022/10/08 02:20:40;;;;;;;;;;;;;;;20.81;42.06;99639.66;4482849;32;33959;-85
2022/10/08 02:23:22;;;;;;;;;;;;;;;20.89;41.77;99635.06;4458832;32;34587;-84
2022/10/08 02:26:03;;;;;;;;;;;;;;;20.87;41.89;99641.28;4468273;32;32875;-93
2022/10/08 02:28:33;;;;;;;;;;;;;;;20.73;42.02;99633.69;4468173;32;35188;-85
2022/10/08 02:31:04;;;;;;;;;;;;;;;20.89;41.78;99632.44;4482376;32;33886;-84
2022/10/08 02:33:33;;;;;;;;;;;;;;;20.97;41.36;99631.41;4467903;32;34984;-85
2022/10/08 02:36:01;;;;;;;;;;;;;;;20.91;41.49;99629.78;4468523;32;33818;-94
2022/10/08 02:38:31;;;;;;;;;;;;;;;20.92;41.45;99628.03;4482217;32;33834;-85
2022/10/08 02:40:59;;;;;;;;;;;;;;;20.73;41.86;99627.56;4482506;32;34396;-84
2022/10/08 02:43:28;;;;;;;;;;;;;;;20.88;41.35;99625.44;4467981;32;35177;-84
2022/10/08 02:45:58;;;;;;;;;;;;;;;20.82;41.56;99616.81;4482391;32;33283;-90
2022/10/08 02:48:26;;;;;;;;;;;;;;;20.84;41.45;99630.81;4482371;32;33896;-85
2022/10/08 02:50:54;;;;;;;;;;;;;;;20.89;41.32;99623.69;4468074;32;35239;-85
2022/10/08 02:53:22;;;;;;;;;;;;;;;20.89;40.99;99628.94;4469235;32;34996;-85
2022/10/08 02:55:53;;;;;;;;;;;;;;;20.79;41.09;99628.25;4470386;32;33224;-85
2022/10/08 02:58:21;;;;;;;;;;;;;;;20.58;41.71;99628.75;4484270;32;34841;-84
2022/10/08 03:01:07;;;;;;;;;;;;;;;20.75;41.48;99625.72;4483856;32;35254;-84
2022/10/08 03:03:35;;;;;;;;;;;;;;;20.74;41.41;99631.91;4484233;32;35540;-84
2022/10/08 03:06:03;;;;;;;;;;;;;;;20.74;41.03;99629.28;4470322;32;32843;-84
2022/10/08 03:08:33;;;;;;;;;;;;;;;20.66;40.96;99629.44;4470100;32;34117;-86
2022/10/08 03:11:00;;;;;;;;;;;;;;;20.77;40.64;99630.09;4469637;32;35110;-85
2022/10/08 03:13:27;;;;;;;;;;;;;;;20.75;40.81;99625.72;4484147;32;34349;-94
2022/10/08 03:15:54;;;;;;;;;;;;;;;20.68;41.01;99630.25;4469885;32;33327;-85
2022/10/08 03:18:23;;;;;;;;;;;;;;;20.64;41.20;99618.91;4469918;32;34225;-85
2022/10/08 03:20:50;;;;;;;;;;;;;;;20.68;41.11;99625.00;4469758;32;35198;-86
2022/10/08 03:23:18;;;;;;;;;;;;;;;20.69;40.85;99623.25;4484248;32;34965;-90
2022/10/08 03:25:45;;;;;;;;;;;;;;;20.62;41.07;99620.72;4483948;32;33820;-84
2022/10/08 03:28:12;;;;;;;;;;;;;;;20.52;41.26;99619.19;4483808;32;33693;-84
2022/10/08 03:30:40;;;;;;;;;;;;;;;20.57;41.23;99627.87;4483727;32;33706;-85
2022/10/08 03:33:07;;;;;;;;;;;;;;;20.61;41.25;99629.53;4483711;32;34116;-83
2022/10/08 03:35:35;;;;;;;;;;;;;;;20.64;41.18;99624.19;4484169;32;33396;-84
2022/10/08 03:38:02;;;;;;;;;;;;;;;20.57;41.09;99626.97;4484201;32;34917;-84
2022/10/08 03:40:29;;;;;;;;;;;;;;;20.53;41.24;99623.56;4483857;32;35351;-84
2022/10/08 03:42:56;;;;;;;;;;;;;;;20.55;41.10;99628.78;4483793;32;33953;-83
2022/10/08 03:45:24;;;;;;;;;;;;;;;20.45;41.33;99627.19;4484154;32;33279;-83
2022/10/08 03:47:51;;;;;;;;;;;;;;;20.46;41.43;99628.97;4483793;32;34139;-85
2022/10/08 03:50:19;;;;;;;;;;;;;;;20.46;41.51;99627.19;4483982;32;34302;-85
2022/10/08 03:52:46;;;;;;;;;;;;;;;20.36;41.96;99629.13;4483966;32;34395;-85
2022/10/08 03:55:14;;;;;;;;;;;;;;;20.15;42.27;99626.91;4469580;32;34597;-84
2022/10/08 03:57:41;;;;;;;;;;;;;;;20.29;42.35;99624.00;4483479;32;34252;-85
2022/10/08 04:00:09;;;;;;;;;;;;;;;20.22;42.55;99623.25;4484079;32;34182;-84
2022/10/08 04:02:36;;;;;;;;;;;;;;;20.23;42.59;99624.12;4483875;32;34092;-85
2022/10/08 04:05:03;;;;;;;;;;;;;;;20.31;42.25;99625.72;4482989;32;33325;-85
2022/10/08 04:07:30;;;;;;;;;;;;;;;20.24;42.54;99624.09;4482694;32;33819;-85
2022/10/08 04:09:58;;;;;;;;;;;;;;;20.24;42.54;99613.56;4483882;32;35233;-84
2022/10/08 04:12:25;;;;;;;;;;;;;;;20.23;42.67;99614.47;4483667;32;34919;-92
2022/10/08 04:14:52;;;;;;;;;;;;;;;20.25;42.48;99610.03;4483920;32;33194;-85
2022/10/08 04:17:20;;;;;;;;;;;;;;;20.18;42.68;99609.28;4484041;32;34048;-94
2022/10/08 04:19:47;;;;;;;;;;;;;;;20.11;42.99;99612.06;4483842;32;34092;-85
2022/10/08 04:22:14;;;;;;;;;;;;;;;20.26;42.58;99611.75;4483975;32;35183;-85
2022/10/08 04:24:41;;;;;;;;;;;;;;;20.29;42.62;99605.56;4483423;32;33208;-85
2022/10/08 04:27:09;;;;;;;;;;;;;;;20.29;43.25;99611.72;4483751;32;34934;-92
2022/10/08 04:29:36;;;;;;;;;;;;;;;20.26;43.19;99611.75;4483361;32;35198;-86
2022/10/08 04:32:03;;;;;;;;;;;;;;;19.77;44.92;99609.16;4483588;32;34976;-85
2022/10/08 04:34:31;;;;;;;;;;;;;;;20.02;44.60;99618.38;4469928;32;34255;-92
2022/10/08 04:36:58;;;;;;;;;;;;;;;19.90;44.80;99613.34;4469798;32;33641;-93
2022/10/08 04:39:26;;;;;;;;;;;;;;;19.34;46.99;99615.13;4483026;32;33850;-89
2022/10/08 04:41:53;;;;;;;;;;;;;;;19.84;45.79;99611.66;4483869;32;34191;-85
2022/10/08 04:44:20;;;;;;;;;;;;;;;20.06;45.05;99625.31;4483125;32;33096;-85
2022/10/08 04:46:48;;;;;;;;;;;;;;;20.27;44.19;99618.78;4467945;32;35108;-85
2022/10/08 04:49:15;;;;;;;;;;;;;;;19.96;45.05;99620.25;4473967;32;34375;-85
2022/10/08 04:51:42;;;;;;;;;;;;;;;19.84;45.53;99608.16;4482894;32;34337;-85
2022/10/08 04:54:09;;;;;;;;;;;;;;;20.09;44.92;99613.88;4483337;32;33681;-86
2022/10/08 04:56:36;;;;;;;;;;;;;;;19.11;47.91;99618.09;4483510;32;35015;-86
2022/10/08 04:59:04;;;;;;;;;;;;;;;19.63;46.85;99612.06;4483708;32;34048;-85
2022/10/08 05:01:31;;;;;;;;;;;;;;;19.81;46.39;99619.63;4483571;32;35002;-86
2022/10/08 05:03:59;;;;;;;;;;;;;;;19.30;47.66;99624.81;4484073;32;33181;-85
2022/10/08 05:06:27;;;;;;;;;;;;;;;19.66;47.01;99623.41;4482994;32;33895;-90
2022/10/08 05:08:55;;;;;;;;;;;;;;;19.40;47.48;99620.31;4483423;32;34981;-84
2022/10/08 05:11:26;;;;;;;;;;;;;;;19.12;48.18;99620.69;4466793;32;34809;-84
2022/10/08 05:13:53;;;;;;;;;;;;;;;19.62;46.79;99615.56;4483096;32;33489;-85
2022/10/08 05:16:21;;;;;;;;;;;;;;;19.95;45.94;99616.75;4468360;32;34877;-85
2022/10/08 05:18:50;;;;;;;;;;;;;;;19.41;47.44;99625.53;4485174;32;34191;-83
2022/10/08 05:21:19;;;;;;;;;;;;;;;19.36;47.68;99622.09;4464674;32;34253;-89
2022/10/08 05:23:46;;;;;;;;;;;;;;;19.26;47.95;99625.75;4468079;32;34162;-86
2022/10/08 05:26:14;;;;;;;;;;;;;;;18.66;49.75;99623.06;4482444;32;34103;-93
2022/10/08 05:28:42;;;;;;;;;;;;;;;18.99;49.01;99623.53;4468626;32;35162;-85
2022/10/08 05:31:10;;;;;;;;;;;;;;;18.38;50.68;99631.28;4482980;32;34462;-93
2022/10/08 05:33:37;;;;;;;;;;;;;;;19.07;48.93;99619.03;4467964;32;33502;-94
2022/10/08 05:36:05;;;;;;;;;;;;;;;18.51;50.38;99629.38;4482722;32;34173;-88
2022/10/08 05:38:33;;;;;;;;;;;;;;;18.73;49.85;99631.78;4468754;32;34498;-85
2022/10/08 05:41:12;;;;;;;;;;;;;;;18.44;50.75;99632.94;4472100;32;34224;-93
2022/10/08 05:43:39;;;;;;;;;;;;;;;18.49;50.48;99639.03;4468734;32;33481;-92
2022/10/08 05:46:06;;;;;;;;;;;;;;;18.09;51.93;99644.72;4469614;32;34066;-91
2022/10/08 05:48:34;;;;;;;;;;;;;;;17.84;52.84;99645.81;4484005;32;35016;-92
2022/10/08 05:51:02;;;;;;;;;;;;;;;18.16;51.91;99648.16;4470025;32;34852;-93
2022/10/08 05:53:29;;;;;;;;;;;;;;;18.42;51.01;99640.00;4483746;32;34107;-86
2022/10/08 05:56:03;;;;;;;;;;;;;;;17.90;52.67;99646.62;4483110;32;34382;-86
2022/10/08 05:58:32;;;;;;;;;;;;;;;18.19;51.96;99651.63;4483042;32;33971;-86
2022/10/08 06:01:00;;;;;;;;;;;;;;;18.73;50.52;99651.03;4467151;32;34334;-86
2022/10/08 06:03:27;;;;;;;;;;;;;;;17.79;52.72;99663.38;4467932;32;32131;-84
2022/10/08 06:05:54;;;;;;;;;;;;;;;18.61;50.65;99654.62;4467433;32;34176;-88
2022/10/08 06:08:22;;;;;;;;;;;;;;;18.88;50.28;99655.22;4473613;32;35597;-91
2022/10/08 06:10:50;;;;;;;;;;;;;;;19.04;50.12;99650.63;4483125;32;34332;-83
2022/10/08 06:13:20;;;;;;;;;;;;;;;18.82;50.60;99658.78;4467067;32;33788;-94
2022/10/08 06:16:13;;;;;;;;;;;;;;;18.17;51.87;99669.12;4469467;32;34080;-87
2022/10/08 06:18:41;;;;;;;;;;;;;;;18.21;52.17;99670.81;4472012;32;33800;-90
2022/10/08 06:21:09;;;;;;;;;;;;;;;18.53;51.43;99671.38;4482805;32;34247;-86
2022/10/08 06:23:37;;;;;;;;;;;;;;;18.31;52.08;99679.47;4468902;32;33727;-87
2022/10/08 06:26:05;;;;;;;;;;;;;;;17.74;53.62;99676.50;4468889;32;34310;-87
2022/10/08 06:28:33;;;;;;;;;;;;;;;17.46;54.79;99676.69;4484184;32;34177;-95
2022/10/08 06:31:00;;;;;;;;;;;;;;;18.64;51.28;99677.38;4484742;32;34173;-91
2022/10/08 06:33:28;;;;;;;;;;;;;;;18.27;52.27;99676.91;4484702;32;33038;-86
2022/10/08 06:35:55;;;;;;;;;;;;;;;18.43;51.80;99671.47;4482948;32;34351;-85
2022/10/08 06:38:22;;;;;;;;;;;;;;;18.35;51.93;99675.06;4484240;32;35276;-87
2022/10/08 06:40:50;;;;;;;;;;;;;;;17.84;53.70;99678.19;4483546;32;33142;-85
2022/10/08 06:43:17;;;;;;;;;;;;;;;17.07;56.11;99671.69;4481972;32;34142;-88
2022/10/08 06:45:45;;;;;;;;;;;;;;;18.18;52.96;99688.34;4470196;32;34413;-89
2022/10/08 06:48:12;;;;;;;;;;;;;;;18.32;52.46;99686.47;4484366;32;34937;-89
2022/10/08 06:50:39;;;;;;;;;;;;;;;18.21;52.61;99690.94;4470130;32;34837;-84
2022/10/08 06:53:10;;;;;;;;;;;;;;;18.72;51.50;99686.06;4484010;32;34204;-85
2022/10/08 06:55:38;;;;;;;;;;;;;;;18.93;51.09;99690.16;4484421;32;35235;-86
2022/10/08 06:58:05;;;;;;;;;;;;;;;19.00;50.78;99688.34;4483926;32;33988;-90
2022/10/08 07:00:32;;;;;;;;;;;;;;;18.76;51.02;99690.38;4484127;32;33430;-90
2022/10/08 07:03:00;;;;;;;;;;;;;;;19.28;50.30;99684.44;4484743;32;33131;-91
2022/10/08 07:05:27;;;;;;;;;;;;;;;20.11;47.89;99684.00;4484154;32;34029;-86
2022/10/08 07:07:54;;;;;;;;;;;;;;;19.22;50.33;99689.78;4483547;32;34400;-87
2022/10/08 07:10:22;;;;;;;;;;;;;;;18.81;50.71;99690.31;4483665;32;33867;-90
2022/10/08 07:12:49;;;;;;;;;;;;;;;18.31;52.15;99692.59;4482714;32;34321;-86
2022/10/08 07:15:17;;;;;;;;;;;;;;;18.11;52.87;99691.94;4479191;32;33424;-88
2022/10/08 07:17:44;;;;;;;;;;;;;;;18.15;52.71;99691.03;4482914;32;35240;-88
2022/10/08 07:20:11;;;;;;;;;;;;;;;18.26;52.31;99690.91;4482684;32;34034;-86
2022/10/08 07:22:38;;;;;;;;;;;;;;;18.13;53.04;99693.66;4469791;32;34253;-86
2022/10/08 07:25:06;;;;;;;;;;;;;;;17.99;53.76;99688.56;4483948;32;35008;-87
2022/10/08 07:27:33;;;;;;;;;;;;;;;19.13;50.98;99682.00;4484032;32;34405;-91
2022/10/08 07:30:00;;;;;;;;;;;;;;;19.30;50.27;99680.03;4483729;32;34179;-90
2022/10/08 07:32:28;;;;;;;;;;;;;;;18.61;51.37;99682.66;4483927;32;33310;-91
2022/10/08 07:34:55;;;;;;;;;;;;;;;19.20;50.81;99683.66;4483312;32;34179;-86
2022/10/08 07:37:26;;;;;;;;;;;;;;;20.23;48.00;99680.31;4471206;32;34865;-86
2022/10/08 07:39:53;;;;;;;;;;;;;;;20.52;47.26;99674.50;4467316;32;34316;-91
2022/10/08 07:42:23;;;;;;;;;;;;;;;19.95;47.87;99671.16;4481051;32;33443;-89
2022/10/08 07:44:50;;;;;;;;;;;;;;;20.65;46.89;99664.59;4484116;32;34377;-91
2022/10/08 07:47:17;;;;;;;;;;;;;;;21.07;46.32;99672.50;4474596;32;35105;-88
2022/10/08 07:49:45;;;;;;;;;;;;;;;21.24;46.44;99680.03;4478490;32;33881;-90
2022/10/08 07:52:12;;;;;;;;;;;;;;;20.92;47.13;99675.47;4483983;32;33212;-88
2022/10/08 07:54:39;;;;;;;;;;;;;;;20.07;49.28;99676.19;4483969;32;34393;-88
2022/10/08 07:57:07;;;;;;;;;;;;;;;21.33;46.22;99672.81;4483813;32;34218;-88
2022/10/08 07:59:34;;;;;;;;;;;;;;;21.17;45.17;99666.09;4483494;32;34707;-87
2022/10/08 08:02:02;;;;;;;;;;;;;;;21.58;44.60;99666.94;4483930;32;34892;-91
2022/10/08 08:04:29;;;;;;;;;;;;;;;21.46;46.08;99677.78;4483710;32;33470;-85
2022/10/08 08:06:56;;;;;;;;;;;;;;;20.82;47.43;99667.72;4483817;32;35130;-86
2022/10/08 08:09:24;;;;;;;;;;;;;;;21.37;46.23;99670.97;4483437;32;34682;-85
2022/10/08 08:11:51;;;;;;;;;;;;;;;21.66;45.83;99670.25;4483611;32;33196;-89
2022/10/08 08:14:20;;;;;;;;;;;;;;;21.67;45.23;99669.38;4483629;32;34114;-90
2022/10/08 08:16:47;;;;;;;;;;;;;;;21.34;45.77;99679.81;4483396;32;34479;-86
2022/10/08 08:19:15;;;;;;;;;;;;;;;22.09;43.63;99666.56;4483492;32;33878;-88
2022/10/08 08:21:42;;;;;;;;;;;;;;;21.88;44.37;99665.31;4481769;32;33034;-87
2022/10/08 08:24:10;;;;;;;;;;;;;;;22.20;44.00;99667.16;4483620;32;33974;-87
2022/10/08 08:26:38;;;;;;;;;;;;;;;22.14;44.05;99672.59;4469443;32;34124;-90
2022/10/08 08:29:06;;;;;;;;;;;;;;;22.11;43.62;99672.63;4466628;32;33673;-87
2022/10/08 08:31:34;;;;;;;;;;;;;;;22.12;43.06;99666.44;4469320;32;33304;-88
2022/10/08 08:34:12;;;;;;;;;;;;;;;22.33;42.74;99660.63;4483045;32;35040;-89
2022/10/08 08:36:43;;;;;;;;;;;;;;;21.64;44.47;99666.81;4468906;32;35215;-87
2022/10/08 08:39:17;;;;;;;;;;;;;;;21.49;44.67;99668.03;4483642;32;34029;-87
2022/10/08 08:41:48;;;;;;;;;;;;;;;22.52;42.43;99662.78;4483671;32;33841;-86
2022/10/08 08:44:15;;;;;;;;;;;;;;;22.02;43.45;99672.91;4483547;32;34196;-90
2022/10/08 08:46:43;;;;;;;;;;;;;;;22.24;43.50;99660.91;4483349;32;35343;-89
2022/10/08 08:49:15;;;;;;;;;;;;;;;22.62;41.42;99652.81;4469210;32;34380;-90
2022/10/08 08:51:42;;;;;;;;;;;;;;;22.78;42.73;99657.59;4468950;32;34340;-88
2022/10/08 08:54:10;;;;;;;;;;;;;;;22.97;42.39;99657.09;4483318;32;34226;-90
2022/10/08 08:56:37;;;;;;;;;;;;;;;22.93;41.56;99650.16;4483476;32;34771;-89
2022/10/08 08:59:07;;;;;;;;;;;;;;;22.22;43.09;99659.19;4469474;32;34914;-88
2022/10/08 09:01:44;;;;;;;;;;;;;;;21.79;44.08;99660.28;4469214;32;34101;-88
2022/10/08 09:04:30;;;;;;;;;;;;;;;21.67;44.51;99664.09;4469533;32;35096;-87
2022/10/08 09:06:57;;;;;;;;;;;;;;;22.08;44.24;99662.16;4482891;32;35189;-89
2022/10/08 09:09:32;;;;;;;;;;;;;;;21.75;44.55;99664.78;4467979;32;33911;-89
2022/10/08 09:12:02;;;;;;;;;;;;;;;22.58;42.11;99657.31;4468223;32;33282;-88
2022/10/08 09:14:43;;;;;;;;;;;;;;;22.32;43.45;99652.75;4469175;32;34282;-90
2022/10/08 09:17:17;;;;;;;;;;;;;;;22.81;42.20;99661.94;4453056;32;33547;-87
2022/10/08 09:19:45;;;;;;;;;;;;;;;23.38;39.80;99655.81;4453524;32;34260;-87
2022/10/08 09:22:22;;;;;;;;;;;;;;;23.18;41.05;99656.41;4458828;32;34241;-88
2022/10/08 09:24:55;;;;;;;;;;;;;;;23.43;40.27;99653.03;4469157;32;35047;-88
2022/10/08 09:27:22;;;;;;;;;;;;;;;24.13;38.62;99661.28;4477327;32;34476;-87
2022/10/08 09:29:49;;;;;;;;;;;;;;;23.62;37.80;99653.28;4467965;32;33965;-88
2022/10/08 09:32:17;;;;;;;;;;;;;;;22.45;39.32;99659.41;4482980;32;33473;-90
2022/10/08 09:34:47;;;;;;;;;;;;;;;23.52;38.17;99647.41;4468941;32;34314;-92
2022/10/08 09:37:18;;;;;;;;;;;;;;;23.84;38.95;99656.13;4482949;32;35106;-88
2022/10/08 09:40:05;;;;;;;;;;;;;;;23.63;37.77;99649.72;4468608;32;34694;-88
2022/10/08 09:42:32;;;;;;;;;;;;;;;23.28;38.63;99660.53;4482927;32;34465;-89
2022/10/08 09:45:02;;;;;;;;;;;;;;;24.10;36.49;99650.81;4468484;32;35036;-90
2022/10/08 09:47:30;;;;;;;;;;;;;;;24.02;37.43;99647.56;4483326;32;34259;-86
2022/10/08 09:50:06;;;;;;;;;;;;;;;23.67;37.05;99644.28;4482760;32;34799;-87
2022/10/08 09:52:34;;;;;;;;;;;;;;;24.21;37.23;99648.63;4482774;32;32933;-87
2022/10/08 09:55:02;;;;;;;;;;;;;;;23.41;38.00;99644.25;4481785;32;33605;-87
2022/10/08 09:57:29;;;;;;;;;;;;;;;23.59;38.27;99635.72;4479667;32;35130;-90
2022/10/08 09:59:58;;;;;;;;;;;;;;;24.03;37.03;99633.38;4479417;32;34837;-87
2022/10/08 10:02:33;;;;;;;;;;;;;;;23.59;39.22;99633.06;4478951;32;33316;-90
2022/10/08 10:05:01;;;;;;;;;;;;;;;23.34;40.37;99634.81;4463715;32;35151;-87
2022/10/08 10:07:37;;;;;;;;;;;;;;;23.01;39.19;99634.94;4466627;32;33269;-85
2022/10/08 10:10:08;;;;;;;;;;;;;;;23.85;37.98;99620.78;4466296;32;33936;-87
2022/10/08 10:12:35;;;;;;;;;;;;;;;23.68;37.85;99624.00;4466118;32;33406;-86
2022/10/08 10:15:06;;;;;;;;;;;;;;;23.54;38.90;99624.44;4480157;32;34870;-89
2022/10/08 10:17:50;;;;;;;;;;;;;;;23.84;38.27;99622.56;4479998;32;34654;-91
2022/10/08 10:20:23;;;;;;;;;;;;;;;24.54;37.75;99618.34;4464523;32;34133;-88
2022/10/08 10:23:09;;;;;;;;;;;;;;;24.52;37.12;99605.16;4469021;32;33910;-92
2022/10/08 10:25:42;;;;;;;;;;;;;;;24.62;37.46;99603.00;4475801;32;34169;-88
2022/10/08 10:28:11;;;;;;;;;;;;;;;24.38;38.40;99607.41;4480317;32;33907;-91
2022/10/08 10:30:46;;;;;;;;;;;;;;;24.07;36.79;99597.94;4465593;32;35105;-90
2022/10/08 10:33:19;;;;;;;;;;;;;;;24.64;37.34;99596.72;4465792;32;34613;-88
2022/10/08 10:35:51;;;;;;;;;;;;;;;24.47;36.52;99596.50;4465045;32;33739;-89
2022/10/08 10:38:28;;;;;;;;;;;;;;;24.68;35.03;99584.22;4479274;32;34434;-88
2022/10/08 10:41:08;;;;;;;;;;;;;;;24.61;37.56;99583.59;4466190;32;34099;-88
2022/10/08 10:43:38;;;;;;;;;;;;;;;25.06;35.34;99579.22;4464906;32;33324;-88
2022/10/08 10:46:25;;;;;;;;;;;;;;;24.18;36.12;99581.66;4478997;32;35245;-87
2022/10/08 10:48:53;;;;;;;;;;;;;;;24.94;35.30;99583.22;4479561;32;34249;-87
2022/10/08 10:51:41;;;;;;;;;;;;;;;25.10;36.13;99570.25;4467801;32;32489;-88
2022/10/08 10:54:11;;;;;;;;;;;;;;;24.82;35.61;99573.09;4466318;32;33700;-90
2022/10/08 10:56:41;;;;;;;;;;;;;;;23.98;36.37;99572.63;4469431;32;34344;-88
2022/10/08 10:59:23;;;;;;;;;;;;;;;24.67;35.15;99564.81;4467972;32;34185;-89
2022/10/08 11:01:59;;;;;;;;;;;;;;;24.88;34.92;99562.22;4482239;32;34839;-91
2022/10/08 11:04:46;;;;;;;;;;;;;;;24.75;34.16;99553.91;4468097;32;34083;-90
2022/10/08 11:07:22;;;;;;;;;;;;;;;25.12;34.13;99548.03;4481990;32;33983;-91
2022/10/08 11:09:50;;;;;;;;;;;;;;;24.45;35.66;99548.84;4474933;32;35401;-89
2022/10/08 11:12:20;;;;;;;;;;;;;;;25.09;34.31;99552.56;4465543;32;34213;-91
2022/10/08 11:14:53;;;;;;;;;;;;;;;24.72;33.36;99549.56;4467860;32;34005;-91
2022/10/08 11:17:32;;;;;;;;;;;;;;;25.24;34.25;99549.31;4468499;32;35096;-90
2022/10/08 11:20:09;;;;;;;;;;;;;;;25.54;32.98;99544.53;4469827;32;34382;-91
2022/10/08 11:22:38;;;;;;;;;;;;;;;25.79;33.36;99541.69;4475027;32;34516;-93
2022/10/08 11:25:14;;;;;;;;;;;;;;;25.80;34.53;99535.47;4454503;32;33597;-93
2022/10/08 11:27:41;;;;;;;;;;;;;;;25.20;33.57;99545.06;4468439;32;35050;-87
2022/10/08 11:30:13;;;;;;;;;;;;;;;25.51;35.40;99541.13;4479431;32;35145;-87
2022/10/08 11:32:41;;;;;;;;;;;;;;;26.08;32.69;99535.09;4470416;32;34828;-87
2022/10/08 11:35:24;;;;;;;;;;;;;;;26.31;32.67;99522.56;4469973;32;34028;-87
2022/10/08 11:37:51;;;;;;;;;;;;;;;26.67;32.56;99528.84;4468699;32;33581;-86
2022/10/08 11:40:20;;;;;;;;;;;;;;;26.68;31.25;99525.25;4478466;32;34301;-87
2022/10/08 11:42:53;;;;;;;;;;;;;;;25.89;32.73;99515.59;4467379;32;35030;-87
2022/10/08 11:45:24;;;;;;;;;;;;;;;26.19;34.11;99522.19;4454737;32;33296;-85
2022/10/08 11:47:53;;;;;;;;;;;;;;;25.83;32.57;99515.84;4454502;32;34912;-92
2022/10/08 11:50:27;;;;;;;;;;;;;;;25.81;33.29;99518.59;4469651;32;33940;-87
2022/10/08 11:52:56;;;;;;;;;;;;;;;25.10;34.87;99528.66;4468211;32;33577;-86
2022/10/08 11:55:29;;;;;;;;;;;;;;;25.77;33.75;99521.41;4466926;32;32832;-90
2022/10/08 11:58:00;;;;;;;;;;;;;;;25.36;34.24;99519.59;4469424;32;34882;-91
2022/10/08 12:00:36;;;;;;;;;;;;;;;25.72;33.77;99505.66;4468984;32;33839;-90
2022/10/08 12:03:05;;;;;;;;;;;;;;;25.61;34.00;99502.62;4482245;32;34068;-86
2022/10/08 12:05:42;;;;;;;;;;;;;;;24.98;34.02;99507.91;4469370;32;33476;-88
2022/10/08 12:08:35;;;;;;;;;;;;;;;25.18;34.54;99501.81;4470510;32;34355;-92
2022/10/08 12:11:21;;;;;;;;;;;;;;;24.84;35.11;99496.97;4483361;32;35196;-93
2022/10/08 12:14:08;;;;;;;;;;;;;;;25.32;35.65;99495.94;4480226;32;34722;-90
2022/10/08 12:16:46;;;;;;;;;;;;;;;25.54;34.26;99496.72;4470883;32;34143;-89
2022/10/08 12:22:03;;;;;;;;;;;;;;;25.59;34.21;99496.53;4483434;32;34356;-92
2022/10/08 12:24:36;;;;;;;;;;;;;;;25.03;35.26;99495.31;4482621;32;35090;-90
2022/10/08 12:27:15;;;;;;;;;;;;;;;24.84;35.13;99494.31;4482904;32;34227;-88
2022/10/08 12:30:02;;;;;;;;;;;;;;;25.04;34.88;99486.44;4483331;32;34023;-86
2022/10/08 12:32:30;;;;;;;;;;;;;;;24.49;36.11;99493.94;4470756;32;35199;-87
2022/10/08 12:34:58;;;;;;;;;;;;;;;25.54;35.39;99480.81;4468696;32;32765;-86
2022/10/08 12:37:25;;;;;;;;;;;;;;;24.97;35.15;99474.34;4483353;32;33276;-86
2022/10/08 12:39:52;;;;;;;;;;;;;;;25.20;34.32;99484.91;4482909;32;34257;-86
2022/10/08 12:42:21;;;;;;;;;;;;;;;25.42;34.31;99470.69;4469060;32;33900;-86
2022/10/08 12:45:10;;;;;;;;;;;;;;;25.23;34.88;99460.87;4483423;32;34024;-89
2022/10/08 12:47:40;;;;;;;;;;;;;;;24.13;36.99;99470.56;4482986;32;34068;-87
2022/10/08 12:50:22;;;;;;;;;;;;;;;24.41;36.15;99474.84;4469161;32;34091;-87
2022/10/08 12:52:49;;;;;;;;;;;;;;;25.28;35.15;99470.44;4482968;32;34217;-86
2022/10/08 12:55:17;;;;;;;;;;;;;;;23.99;36.49;99472.88;4468808;32;34018;-86
2022/10/08 12:57:45;;;;;;;;;;;;;;;25.02;35.59;99467.06;4483012;32;33984;-86
2022/10/08 13:00:23;;;;;;;;;;;;;;;25.49;36.55;99466.84;4481135;32;34134;-87
2022/10/08 13:03:19;;;;;;;;;;;;;;;25.94;34.04;99463.12;4468415;32;34830;-87
2022/10/08 13:05:47;;;;;;;;;;;;;;;25.66;33.98;99453.72;4477234;32;34944;-87
2022/10/08 13:08:33;;;;;;;;;;;;;;;24.78;35.41;99457.47;4482963;32;34158;-87
2022/10/08 13:11:02;;;;;;;;;;;;;;;25.31;34.64;99452.59;4482844;32;33768;-85